Terminal Aerodrome Forecast
Issued by NWS Grand Forks, ND

Home | Current Version | Previous Version | Graphics & Text | Print | Product List | Glossary On
Versions: 1 2 3 4 5 6 7 8 9 10 11 12 13 14 15
000
FTUS43 KFGF 281139
TAFFAR
TAF
KFAR 281139Z 2812/2912 13013KT P6SM BKN130
     FM281500 21015KT P6SM BKN080
     FM282100 24025G35KT P6SM BKN040
     FM290600 24022KT P6SM BKN035=

USA.gov is the U.S. government's official web portal to all federal, state and local government web resources and services.